Time;durP1;ratioP1;P1;durP2;ratioP2;P2;SDS_P1;SDS_P2;PMS_P1;PMS_P2;Temp;Humidity;BMP_temperature;BMP_pressure;BME280_temperature;BME280_humidity;BME280_pressure;Samples;Min_cycle;Max_cycle;Signal;HPM_P1;HPM_P2
2023/07/08 00:00:55;;;;;;;13.60;8.70;;;;;;;14.44;66.56;100879.43;130105;1253;114698;-60
2023/07/08 00:04:17;;;;;;;14.20;8.40;;;;;;;14.40;67.13;100875.69;130003;1276;129510;-59
2023/07/08 00:07:20;;;;;;;10.40;7.90;;;;;;;14.39;67.24;100874.34;129953;1256;114728;-63
2023/07/08 00:10:28;;;;;;;10.90;7.80;;;;;;;14.35;67.42;100872.73;129980;1274;114717;-59
2023/07/08 00:13:30;;;;;;;11.90;8.50;;;;;;;14.32;67.47;100873.46;129788;1274;114907;-60
2023/07/08 00:16:33;;;;;;;10.40;8.20;;;;;;;14.27;67.64;100868.85;130118;1267;114785;-61
2023/07/08 00:19:36;;;;;;;12.50;8.00;;;;;;;14.24;68.13;100868.17;130092;1276;114762;-65
2023/07/08 00:22:38;;;;;;;11.40;8.60;;;;;;;14.21;68.68;100867.59;130239;1269;114805;-60
2023/07/08 00:25:41;;;;;;;13.10;8.20;;;;;;;14.20;68.45;100869.09;130294;1257;115206;-63
2023/07/08 00:28:43;;;;;;;11.80;7.90;;;;;;;14.17;68.39;100872.48;130125;1257;115083;-60
2023/07/08 00:31:46;;;;;;;9.00;7.30;;;;;;;14.14;68.16;100874.45;130021;1276;114770;-61
2023/07/08 00:34:48;;;;;;;11.40;8.80;;;;;;;14.10;68.38;100871.61;130206;1256;114698;-61
2023/07/08 00:37:52;;;;;;;10.20;8.00;;;;;;;14.06;68.37;100873.48;130299;1272;114709;-64
2023/07/08 00:41:11;;;;;;;14.40;7.60;;;;;;;14.01;68.56;100871.05;129897;1257;127665;-62
2023/07/08 00:44:15;;;;;;;12.70;8.00;;;;;;;13.96;68.86;100870.77;129693;1276;115229;-61
2023/07/08 00:47:19;;;;;;;11.60;8.20;;;;;;;13.92;68.99;100865.24;129979;1257;114740;-58
2023/07/08 00:50:22;;;;;;;9.40;7.60;;;;;;;13.88;69.55;100863.65;129927;1273;115077;-60
2023/07/08 00:53:29;;;;;;;12.60;7.90;;;;;;;13.89;69.82;100866.69;130304;1257;114717;-63
2023/07/08 00:56:36;;;;;;;10.60;7.80;;;;;;;13.88;69.71;100866.17;130165;1254;129039;-61
2023/07/08 00:59:52;;;;;;;11.10;8.80;;;;;;;13.85;69.51;100860.06;129966;1257;115161;-64
2023/07/08 01:02:55;;;;;;;18.10;8.80;;;;;;;13.80;69.74;100861.01;129831;1259;114865;-63
2023/07/08 01:06:01;;;;;;;13.20;8.90;;;;;;;13.77;69.68;100860.31;130115;1254;114840;-64
2023/07/08 01:09:04;;;;;;;10.90;8.20;;;;;;;13.73;69.83;100861.39;130095;1257;115289;-60
2023/07/08 01:12:10;;;;;;;11.30;7.90;;;;;;;13.70;69.75;100860.15;129964;1268;114737;-64
2023/07/08 01:15:14;;;;;;;11.60;8.70;;;;;;;13.66;69.78;100858.90;130087;1259;115362;-62
2023/07/08 01:18:21;;;;;;;11.40;7.80;;;;;;;13.61;69.83;100854.67;129993;1254;115211;-64
2023/07/08 01:21:36;;;;;;;12.00;8.30;;;;;;;13.57;69.88;100859.36;130098;1256;114763;-64
2023/07/08 01:24:42;;;;;;;11.50;8.40;;;;;;;13.53;70.05;100857.25;130084;1254;114707;-60
2023/07/08 01:27:55;;;;;;;11.90;9.00;;;;;;;13.49;70.07;100852.98;129932;1259;128414;-61
2023/07/08 01:30:57;;;;;;;15.90;11.50;;;;;;;13.45;70.34;100849.06;129808;1278;115163;-63
2023/07/08 01:34:00;;;;;;;14.10;10.10;;;;;;;13.42;70.61;100849.93;129956;1277;114713;-65
2023/07/08 01:37:04;;;;;;;12.70;8.70;;;;;;;13.39;70.67;100848.98;129926;1258;114703;-61
2023/07/08 01:40:16;;;;;;;11.60;9.30;;;;;;;13.36;70.72;100846.09;129928;1260;115316;-62
2023/07/08 01:43:19;;;;;;;14.80;10.00;;;;;;;13.33;70.84;100848.21;129586;1278;128690;-62
2023/07/08 01:46:26;;;;;;;18.00;10.10;;;;;;;13.30;70.99;100845.86;129639;1271;114869;-61
2023/07/08 01:49:29;;;;;;;16.90;11.20;;;;;;;13.28;71.18;100845.98;129683;1257;114920;-66
2023/07/08 01:52:32;;;;;;;16.10;10.40;;;;;;;13.26;70.99;100841.95;129682;1259;115660;-67
2023/07/08 01:55:34;;;;;;;14.70;10.30;;;;;;;13.24;71.28;100847.45;129880;1259;114799;-67
2023/07/08 01:58:36;;;;;;;14.70;9.50;;;;;;;13.21;71.23;100850.46;129908;1257;114767;-66
2023/07/08 02:01:39;;;;;;;11.40;9.10;;;;;;;13.18;71.38;100844.48;130090;1259;114790;-67
2023/07/08 02:04:41;;;;;;;15.50;11.00;;;;;;;13.15;71.48;100844.82;129870;1278;115295;-67
2023/07/08 02:07:44;;;;;;;14.30;10.70;;;;;;;13.13;71.38;100845.85;129908;1259;114788;-63
2023/07/08 02:10:50;;;;;;;15.10;10.20;;;;;;;13.10;71.49;100842.58;129916;1260;114798;-66
2023/07/08 02:13:52;;;;;;;14.00;9.80;;;;;;;13.08;71.58;100843.60;129979;1258;114830;-67
2023/07/08 02:16:54;;;;;;;12.40;9.60;;;;;;;13.04;71.49;100845.20;129886;1278;114705;-67
2023/07/08 02:19:57;;;;;;;13.90;10.80;;;;;;;13.02;71.62;100845.10;129898;1277;114733;-67
2023/07/08 02:22:59;;;;;;;20.00;11.10;;;;;;;13.01;72.03;100846.27;129852;1269;128766;-66
2023/07/08 02:26:01;;;;;;;19.30;12.70;;;;;;;13.01;72.61;100847.88;130223;1276;114795;-67
2023/07/08 02:29:03;;;;;;;13.50;11.10;;;;;;;13.02;72.54;100845.88;130002;1276;114846;-66
2023/07/08 02:32:12;;;;;;;16.90;10.90;;;;;;;13.02;72.82;100846.02;130014;1257;114782;-67
2023/07/08 02:35:15;;;;;;;14.30;10.80;;;;;;;13.01;72.36;100847.34;129943;1257;114701;-66
2023/07/08 02:38:17;;;;;;;18.20;10.90;;;;;;;13.00;72.58;100847.05;130074;1254;114778;-67
2023/07/08 02:41:19;;;;;;;12.50;10.10;;;;;;;12.98;72.64;100848.22;129984;1254;114759;-66
2023/07/08 02:44:21;;;;;;;14.20;10.20;;;;;;;12.96;72.32;100846.72;130038;1276;128880;-66
2023/07/08 02:47:24;;;;;;;11.70;9.80;;;;;;;12.95;72.37;100849.46;129966;1266;114722;-67
2023/07/08 02:50:26;;;;;;;14.40;10.40;;;;;;;12.93;72.81;100848.80;130159;1256;115265;-67
2023/07/08 02:53:29;;;;;;;12.20;9.50;;;;;;;12.92;72.71;100849.39;130128;1262;115417;-68
2023/07/08 02:56:31;;;;;;;15.20;9.90;;;;;;;12.93;72.91;100851.36;130048;1257;114861;-66
2023/07/08 02:59:34;;;;;;;12.70;10.30;;;;;;;12.91;73.03;100845.49;130050;1273;115127;-68
2023/07/08 03:02:36;;;;;;;15.60;11.10;;;;;;;12.91;72.68;100846.73;130195;1254;114737;-67
2023/07/08 03:05:38;;;;;;;17.90;11.50;;;;;;;12.91;72.92;100846.20;129964;1276;129002;-67
2023/07/08 03:08:41;;;;;;;17.50;10.10;;;;;;;12.92;73.47;100844.73;130025;1276;114691;-67
2023/07/08 03:11:43;;;;;;;15.40;10.50;;;;;;;12.94;73.71;100845.36;130087;1264;114711;-68
2023/07/08 03:14:46;;;;;;;15.00;11.50;;;;;;;12.97;73.64;100845.73;130244;1257;115150;-67
2023/07/08 03:17:48;;;;;;;13.40;10.60;;;;;;;13.00;73.83;100844.35;130248;1255;114715;-68
2023/07/08 03:20:51;;;;;;;14.80;10.50;;;;;;;13.03;73.84;100845.82;130018;1255;114773;-69
2023/07/08 03:23:53;;;;;;;19.00;10.50;;;;;;;13.06;73.98;100847.27;130020;1257;115368;-69
2023/07/08 03:26:57;;;;;;;15.00;10.60;;;;;;;13.10;73.98;100850.14;130173;1266;115145;-68
2023/07/08 03:29:59;;;;;;;11.30;10.10;;;;;;;13.14;73.81;100850.14;129869;1257;348585;-67
2023/07/08 03:33:02;;;;;;;13.40;10.60;;;;;;;13.18;73.81;100851.67;130225;1256;114673;-68
2023/07/08 03:36:09;;;;;;;14.70;10.50;;;;;;;13.24;73.87;100851.76;130351;1254;114706;-61
2023/07/08 03:39:12;;;;;;;13.00;10.50;;;;;;;13.30;73.89;100855.56;129790;1262;114887;-60
2023/07/08 03:42:14;;;;;;;14.00;10.30;;;;;;;13.36;74.02;100849.69;130310;1276;114771;-61
2023/07/08 03:45:16;;;;;;;18.30;10.20;;;;;;;13.43;74.02;100850.79;130103;1261;114721;-60
2023/07/08 03:48:19;;;;;;;13.10;10.00;;;;;;;13.49;74.01;100850.98;130139;1264;114750;-60
2023/07/08 03:51:26;;;;;;;14.80;10.80;;;;;;;13.56;74.12;100856.02;129920;1260;115185;-60
2023/07/08 03:54:28;;;;;;;13.00;9.90;;;;;;;13.63;73.98;100852.62;129760;1262;114788;-60
2023/07/08 03:57:30;;;;;;;14.60;10.20;;;;;;;13.70;74.20;100853.29;129973;1276;114735;-65
2023/07/08 04:00:32;;;;;;;14.10;10.40;;;;;;;13.77;74.10;100849.34;130031;1276;114718;-61
2023/07/08 04:03:35;;;;;;;20.20;11.50;;;;;;;13.85;74.21;100849.29;129697;1267;115336;-59
2023/07/08 04:06:37;;;;;;;15.50;11.50;;;;;;;13.92;74.20;100850.50;130157;1257;114794;-59
2023/07/08 04:09:40;;;;;;;13.50;10.80;;;;;;;14.01;74.30;100849.64;130118;1256;114728;-59
2023/07/08 04:12:42;;;;;;;16.10;11.90;;;;;;;14.11;74.32;100852.52;130312;1260;114778;-59
2023/07/08 04:15:44;;;;;;;16.30;11.30;;;;;;;14.20;74.24;100852.19;129969;1276;114718;-59
2023/07/08 04:18:47;;;;;;;17.00;11.20;;;;;;;14.31;74.17;100850.34;130065;1257;114808;-59
2023/07/08 04:21:50;;;;;;;16.40;11.80;;;;;;;14.42;74.05;100853.69;130111;1266;115150;-58
2023/07/08 04:24:52;;;;;;;14.80;11.30;;;;;;;14.54;74.10;100849.58;129959;1257;114720;-60
2023/07/08 04:27:54;;;;;;;15.70;12.10;;;;;;;14.65;74.08;100852.52;130164;1255;115165;-58
2023/07/08 04:30:57;;;;;;;17.30;11.40;;;;;;;14.77;73.82;100848.98;130083;1276;115166;-59
2023/07/08 04:33:59;;;;;;;18.80;12.30;;;;;;;14.92;73.77;100847.79;129922;1267;114833;-61
2023/07/08 04:37:01;;;;;;;15.90;11.50;;;;;;;15.07;73.61;100844.39;130077;1267;114804;-60
2023/07/08 04:40:05;;;;;;;15.70;11.20;;;;;;;15.20;73.46;100846.10;129932;1257;114919;-64
2023/07/08 04:43:07;;;;;;;18.40;10.80;;;;;;;15.33;73.33;100844.95;130067;1276;114705;-60
2023/07/08 04:46:21;;;;;;;18.40;12.00;;;;;;;15.50;73.36;100846.99;129902;1271;115416;-61
2023/07/08 04:49:24;;;;;;;18.00;10.40;;;;;;;16.17;74.12;100842.84;129796;1262;115268;-66
2023/07/08 04:52:27;;;;;;;20.10;11.70;;;;;;;17.32;74.02;100837.96;130067;1255;114794;-62
2023/07/08 04:55:29;;;;;;;14.70;10.40;;;;;;;18.58;72.62;100835.85;130212;1257;114756;-61
2023/07/08 04:58:31;;;;;;;11.90;9.40;;;;;;;19.80;70.99;100830.33;130205;1255;114721;-63
2023/07/08 05:01:33;;;;;;;14.60;11.00;;;;;;;21.04;69.53;100826.20;130267;1257;115259;-64
2023/07/08 05:04:36;;;;;;;13.20;10.10;;;;;;;22.12;66.71;100820.80;129821;1275;128411;-61
2023/07/08 05:07:38;;;;;;;12.30;9.10;;;;;;;23.08;65.09;100825.88;130209;1266;115273;-63
2023/07/08 05:10:40;;;;;;;9.50;7.80;;;;;;;23.94;63.27;100822.42;130268;1257;115170;-61
2023/07/08 05:13:42;;;;;;;11.10;7.50;;;;;;;24.83;62.09;100819.19;129854;1259;114750;-60
2023/07/08 05:16:45;;;;;;;11.80;7.50;;;;;;;25.68;60.49;100819.34;129990;1256;114801;-61
2023/07/08 05:19:50;;;;;;;10.00;7.40;;;;;;;26.31;58.39;100821.09;129988;1266;114752;-63
2023/07/08 05:22:53;;;;;;;8.80;7.30;;;;;;;26.83;56.59;100822.84;129746;1260;119826;-62
2023/07/08 05:26:00;;;;;;;11.20;6.60;;;;;;;27.38;55.56;100825.36;129919;1267;114830;-61
2023/07/08 05:29:02;;;;;;;10.00;7.10;;;;;;;27.88;54.07;100822.70;129768;1263;115152;-59
2023/07/08 05:32:05;;;;;;;9.00;6.90;;;;;;;28.29;52.98;100817.80;129949;1267;115237;-62
2023/07/08 05:35:08;;;;;;;8.60;7.10;;;;;;;28.67;51.72;100815.90;130050;1276;114727;-63
2023/07/08 05:38:10;;;;;;;11.00;6.90;;;;;;;29.02;51.04;100817.86;130180;1276;115409;-61
2023/07/08 05:41:12;;;;;;;7.60;6.90;;;;;;;29.35;49.74;100814.79;129985;1276;120352;-62
2023/07/08 05:44:14;;;;;;;10.80;7.40;;;;;;;29.56;48.12;100814.13;130071;1257;114821;-62
2023/07/08 05:47:17;;;;;;;8.30;6.70;;;;;;;29.50;47.15;100815.36;130114;1257;114743;-65
2023/07/08 05:50:19;;;;;;;11.10;6.80;;;;;;;29.43;47.12;100814.75;130039;1266;114753;-69
2023/07/08 05:53:21;;;;;;;8.50;6.40;;;;;;;29.41;45.98;100814.08;129831;1276;116152;-64
2023/07/08 05:56:24;;;;;;;14.50;7.20;;;;;;;29.32;45.06;100815.70;129946;1276;114740;-63
2023/07/08 05:59:26;;;;;;;11.30;6.10;;;;;;;29.33;44.94;100816.74;130179;1276;115103;-66
2023/07/08 06:02:28;;;;;;;8.80;6.50;;;;;;;29.52;44.94;100817.91;130087;1276;120420;-62
2023/07/08 06:05:32;;;;;;;9.50;6.20;;;;;;;29.85;44.68;100815.75;130005;1276;114800;-61
2023/07/08 06:08:34;;;;;;;;;;;;;;;30.32;43.84;100817.79;129825;1260;114881;-64
2023/07/08 06:11:36;;;;;;;8.10;5.80;;;;;;;30.71;43.15;100818.66;130098;1276;114727;-65
2023/07/08 06:14:39;;;;;;;9.80;6.20;;;;;;;31.13;42.24;100816.23;130270;1276;114792;-60
2023/07/08 06:17:41;;;;;;;10.90;5.90;;;;;;;31.56;41.67;100815.63;130136;1276;115067;-60
2023/07/08 06:20:51;;;;;;;7.20;5.00;;;;;;;31.94;40.84;100812.00;130158;1273;114731;-62
2023/07/08 06:23:53;;;;;;;9.50;5.40;;;;;;;32.42;40.20;100811.23;130322;1266;114746;-62
2023/07/08 06:26:55;;;;;;;7.80;5.30;;;;;;;32.85;39.59;100808.44;130290;1276;114839;-60
2023/07/08 06:29:58;;;;;;;7.00;5.00;;;;;;;33.23;38.89;100807.15;130567;1276;114737;-60
2023/07/08 06:33:00;;;;;;;10.40;5.30;;;;;;;33.70;38.46;100800.48;130651;1276;115190;-60
2023/07/08 06:36:02;;;;;;;6.80;4.80;;;;;;;34.17;37.64;100799.21;130222;1276;114855;-60
2023/07/08 06:39:07;;;;;;;8.20;4.90;;;;;;;34.54;37.13;100803.98;130578;1276;114725;-68
2023/07/08 06:42:09;;;;;;;6.90;5.00;;;;;;;34.92;36.03;100803.39;130256;1266;120060;-65
2023/07/08 06:45:11;;;;;;;10.90;5.50;;;;;;;35.11;35.47;100801.44;130059;1276;114795;-66
2023/07/08 06:48:13;;;;;;;5.60;4.90;;;;;;;35.19;34.61;100803.82;130336;1276;114711;-69
2023/07/08 06:51:15;;;;;;;7.10;4.70;;;;;;;35.30;34.50;100804.41;129677;1276;115106;-61
2023/07/08 06:54:17;;;;;;;10.70;5.20;;;;;;;35.49;34.55;100803.30;130169;1276;114712;-67
2023/07/08 06:57:19;;;;;;;8.50;4.50;;;;;;;35.62;33.93;100801.41;130189;1257;114727;-71
2023/07/08 07:00:22;;;;;;;10.00;5.30;;;;;;;35.65;33.26;100803.14;130146;1276;114666;-66
2023/07/08 07:03:27;;;;;;;7.20;5.10;;;;;;;35.80;33.18;100807.09;129821;1276;128927;-68
2023/07/08 07:06:29;;;;;;;5.00;4.60;;;;;;;35.91;32.64;100806.63;130042;1273;114747;-69
2023/07/08 07:09:32;;;;;;;7.90;5.00;;;;;;;36.04;32.16;100805.89;130146;1276;114766;-72
2023/07/08 07:12:35;;;;;;;8.00;5.50;;;;;;;36.18;31.50;100806.61;130303;1256;114715;-71
2023/07/08 07:15:37;;;;;;;6.80;5.50;;;;;;;36.33;31.65;100802.73;130296;1260;114626;-71
2023/07/08 07:18:39;;;;;;;10.30;5.00;;;;;;;36.45;30.73;100806.66;130123;1257;114785;-71
2023/07/08 07:21:41;;;;;;;6.80;4.80;;;;;;;36.41;30.77;100807.59;130011;1276;114809;-73
2023/07/08 07:24:43;;;;;;;7.40;4.80;;;;;;;36.57;30.93;100811.33;129721;1262;119963;-67
2023/07/08 07:27:45;;;;;;;7.60;4.90;;;;;;;36.80;30.71;100815.36;130162;1256;114653;-74
2023/07/08 07:30:56;;;;;;;7.00;4.80;;;;;;;37.10;30.49;100809.67;130391;1254;114740;-77
2023/07/08 07:33:59;;;;;;;6.40;4.50;;;;;;;37.33;30.10;100812.14;130114;1268;114774;-75
2023/07/08 07:37:02;;;;;;;7.70;3.90;;;;;;;37.50;29.86;100813.55;130145;1254;114794;-79
2023/07/08 07:40:06;;;;;;;10.30;4.30;;;;;;;37.72;29.29;100812.20;130205;1276;114772;-72
2023/07/08 07:43:08;;;;;;;10.30;4.10;;;;;;;37.87;28.61;100813.27;130101;1256;121019;-65
2023/07/08 07:46:10;;;;;;;5.30;3.40;;;;;;;37.95;28.43;100810.11;130250;1270;114805;-72
2023/07/08 07:49:13;;;;;;;5.20;3.30;;;;;;;38.08;28.34;100811.27;130392;1257;114644;-76
2023/07/08 07:52:18;;;;;;;5.60;3.90;;;;;;;38.23;28.00;100809.44;129909;1261;115208;-74
2023/07/08 07:55:21;;;;;;;6.20;3.60;;;;;;;38.39;27.61;100810.84;129944;1276;114705;-74
2023/07/08 07:58:23;;;;;;;5.80;4.00;;;;;;;38.49;27.68;100804.10;130286;1276;114715;-74
2023/07/08 08:01:26;;;;;;;6.30;3.50;;;;;;;38.73;27.34;100807.80;130009;1276;115379;-71
2023/07/08 08:04:28;;;;;;;7.60;3.40;;;;;;;38.93;26.59;100807.83;130220;1275;114717;-71
2023/07/08 08:07:30;;;;;;;6.20;3.70;;;;;;;38.99;26.41;100800.76;129692;1260;115785;-69
2023/07/08 08:10:33;;;;;;;7.00;3.70;;;;;;;39.02;25.82;100798.55;129939;1257;115137;-73
2023/07/08 08:13:35;;;;;;;6.90;4.30;;;;;;;39.07;25.88;100800.50;130053;1276;114752;-74
2023/07/08 08:16:37;;;;;;;3.40;3.10;;;;;;;39.22;25.81;100803.14;129753;1273;114884;-75
2023/07/08 08:19:39;;;;;;;6.20;3.40;;;;;;;39.35;25.63;100805.09;129932;1272;115268;-71
2023/07/08 08:22:41;;;;;;;6.60;3.00;;;;;;;39.41;25.08;100805.58;130114;1276;114728;-69
2023/07/08 08:25:44;;;;;;;6.50;3.10;;;;;;;39.42;24.88;100805.89;129894;1273;114625;-69
2023/07/08 08:28:46;;;;;;;7.70;2.60;;;;;;;39.42;24.50;100802.63;129914;1267;114830;-70
2023/07/08 08:31:48;;;;;;;5.20;2.90;;;;;;;39.51;24.60;100798.95;130150;1253;114699;-71
2023/07/08 08:34:50;;;;;;;3.70;3.30;;;;;;;39.60;23.93;100798.68;130332;1257;114708;-70
2023/07/08 08:37:53;;;;;;;3.50;3.10;;;;;;;39.58;23.86;100796.74;129845;1257;114738;-71
2023/07/08 08:40:56;;;;;;;3.60;2.70;;;;;;;39.52;23.38;100795.08;130328;1258;114804;-74
2023/07/08 08:44:00;;;;;;;3.10;2.70;;;;;;;39.48;22.85;100794.58;129911;1270;114732;-67
2023/07/08 08:47:14;;;;;;;5.30;2.90;;;;;;;39.52;23.10;100793.76;129878;1270;114817;-76
2023/07/08 08:50:43;;;;;;;3.90;3.00;;;;;;;39.55;22.89;100792.34;130071;1261;114704;-75
2023/07/08 08:53:46;;;;;;;3.30;2.90;;;;;;;39.38;22.55;100790.46;130095;1276;115000;-73
2023/07/08 08:57:11;;;;;;;3.90;2.70;;;;;;;39.26;22.71;100794.85;130142;1276;114785;-69
2023/07/08 09:00:20;;;;;;;4.80;3.50;;;;;;;39.18;22.22;100792.31;130086;1260;118551;-75
2023/07/08 09:03:47;;;;;;;3.80;2.60;;;;;;;39.10;21.36;100786.02;129744;1273;115154;-73
2023/07/08 09:06:50;;;;;;;3.90;2.80;;;;;;;38.93;20.48;100780.09;129964;1257;114747;-76
2023/07/08 09:10:03;;;;;;;3.30;2.50;;;;;;;38.76;20.96;100778.77;129903;1267;114798;-74
2023/07/08 09:13:06;;;;;;;3.30;2.40;;;;;;;38.53;20.16;100781.48;130067;1257;114749;-75
2023/07/08 09:16:08;;;;;;;;;;;;;;;38.25;20.05;100782.35;129924;1260;119856;-77
2023/07/08 09:19:18;;;;;;;5.10;3.10;;;;;;;38.10;20.26;100783.55;129977;1257;114724;-77
2023/07/08 09:22:39;;;;;;;3.30;2.60;;;;;;;37.89;20.60;100779.23;129952;1257;114874;-77
2023/07/08 09:25:49;;;;;;;4.40;2.70;;;;;;;37.71;20.67;100772.44;130256;1273;114726;-78
2023/07/08 09:28:51;;;;;;;13.90;3.70;;;;;;;37.51;20.92;100770.76;129985;1274;114717;-72
2023/07/08 09:31:54;;;;;;;6.90;3.00;;;;;;;37.38;21.32;100771.95;130789;1254;116261;-63
2023/07/08 09:35:03;;;;;;;2.80;2.60;;;;;;;37.31;21.60;100773.63;131516;1257;115388;-62
2023/07/08 09:38:11;;;;;;;4.60;2.90;;;;;;;37.14;21.67;100771.90;129811;1275;114830;-65
2023/07/08 09:41:13;;;;;;;4.00;2.70;;;;;;;36.97;21.61;100767.13;130164;1257;114797;-64
2023/07/08 09:44:28;;;;;;;2.70;2.40;;;;;;;36.62;20.60;100762.23;130522;1273;115209;-62
2023/07/08 09:47:36;;;;;;;2.90;2.70;;;;;;;36.07;21.15;100758.21;129920;1257;114718;-63
2023/07/08 09:50:38;;;;;;;6.70;2.60;;;;;;;35.77;21.40;100756.42;129843;1254;119961;-63
2023/07/08 09:53:40;;;;;;;5.70;2.90;;;;;;;35.42;21.57;100750.29;129899;1255;114700;-64
2023/07/08 09:56:46;;;;;;;7.00;3.60;;;;;;;35.02;21.28;100749.92;130010;1257;114709;-64
2023/07/08 09:59:53;;;;;;;3.20;2.90;;;;;;;34.48;21.38;100750.05;129794;1261;114788;-61
2023/07/08 10:03:01;;;;;;;5.10;2.90;;;;;;;34.13;22.13;100746.48;129889;1270;114724;-73
2023/07/08 10:06:06;;;;;;;6.50;2.40;;;;;;;33.81;22.07;100742.59;129952;1258;120268;-63
2023/07/08 10:09:16;;;;;;;3.50;2.70;;;;;;;33.57;22.52;100743.95;129933;1254;114788;-62
2023/07/08 10:12:20;;;;;;;3.50;2.40;;;;;;;33.38;22.89;100746.30;129761;1276;114876;-63
2023/07/08 10:15:30;;;;;;;3.20;2.90;;;;;;;33.18;23.27;100743.06;129923;1259;114769;-64
2023/07/08 10:18:32;;;;;;;5.20;2.90;;;;;;;32.94;22.83;100747.82;130014;1254;114731;-63
2023/07/08 10:22:05;;;;;;;5.70;2.60;;;;;;;32.76;23.12;100743.83;129921;1276;114708;-62
2023/07/08 10:25:27;;;;;;;4.90;2.70;;;;;;;32.56;24.06;100742.17;129679;1256;114894;-63
2023/07/08 10:28:33;;;;;;;4.00;3.40;;;;;;;32.42;24.12;100739.05;129975;1276;114743;-63
2023/07/08 10:31:45;;;;;;;4.40;2.70;;;;;;;32.30;24.15;100739.53;130126;1270;115105;-62
2023/07/08 10:34:49;;;;;;;3.70;2.40;;;;;;;32.11;24.44;100741.67;129677;1276;114732;-62
2023/07/08 10:37:58;;;;;;;;;;;;;;;32.02;24.40;100739.77;130007;1253;120235;-63
2023/07/08 10:41:24;;;;;;;4.30;2.80;;;;;;;31.82;24.07;100735.09;129964;1257;114795;-64
2023/07/08 10:44:27;;;;;;;3.80;2.80;;;;;;;31.69;24.99;100732.74;130000;1257;114700;-63
2023/07/08 10:48:09;;;;;;;3.20;2.40;;;;;;;31.66;25.39;100730.38;129692;1257;115551;-64
2023/07/08 10:51:17;;;;;;;3.20;2.60;;;;;;;31.63;25.58;100731.64;129669;1261;114833;-63
2023/07/08 10:54:44;;;;;;;3.30;2.60;;;;;;;31.61;25.60;100732.48;129639;1254;119478;-64
2023/07/08 10:58:03;;;;;;;2.60;2.40;;;;;;;31.56;25.15;100731.70;129877;1257;115449;-62
2023/07/08 11:01:15;;;;;;;3.70;2.60;;;;;;;31.45;24.79;100732.57;129627;1275;114756;-64
2023/07/08 11:05:02;;;;;;;3.40;2.70;;;;;;;31.33;25.08;100726.79;130212;1275;114712;-63
2023/07/08 11:08:21;;;;;;;3.80;3.20;;;;;;;31.28;25.69;100726.11;129464;1284;114923;-62
2023/07/08 11:11:38;;;;;;;4.50;3.20;;;;;;;31.23;25.47;100725.86;129279;1270;119262;-63
2023/07/08 11:14:49;;;;;;;3.10;2.70;;;;;;;31.16;25.13;100724.79;129217;1270;115143;-62
2023/07/08 11:17:59;;;;;;;3.60;2.70;;;;;;;31.00;24.65;100724.19;129093;1284;115059;-63
2023/07/08 11:21:11;;;;;;;2.90;2.40;;;;;;;30.83;24.61;100720.73;129380;1265;114892;-65
2023/07/08 11:24:35;;;;;;;3.50;2.40;;;;;;;30.67;24.33;100716.55;129079;1266;114927;-65
2023/07/08 11:27:41;;;;;;;125.80;32.30;;;;;;;30.54;25.75;100710.98;129350;1261;120276;-63
2023/07/08 11:30:47;;;;;;;87.50;22.80;;;;;;;30.48;26.93;100712.78;129185;1284;115289;-64
2023/07/08 11:33:50;;;;;;;4.80;2.90;;;;;;;30.40;26.74;100714.70;129229;1264;114744;-63
2023/07/08 11:36:52;;;;;;;6.50;2.90;;;;;;;30.26;25.83;100711.33;129259;1268;114999;-64
2023/07/08 11:39:58;;;;;;;3.70;2.70;;;;;;;30.09;25.04;100707.56;129390;1266;115151;-66
2023/07/08 11:43:05;;;;;;;5.20;2.60;;;;;;;29.96;24.63;100704.64;129569;1257;120194;-65
2023/07/08 11:46:14;;;;;;;3.00;2.30;;;;;;;29.85;24.46;100706.66;129939;1257;114792;-63
2023/07/08 11:49:17;;;;;;;3.20;2.40;;;;;;;29.72;24.33;100706.67;129565;1261;114901;-64
2023/07/08 11:52:21;;;;;;;5.30;2.70;;;;;;;29.64;24.57;100703.47;129920;1270;114750;-63
2023/07/08 11:55:36;;;;;;;3.80;2.70;;;;;;;29.59;24.65;100700.23;129948;1272;114741;-64
2023/07/08 11:58:47;;;;;;;5.70;2.40;;;;;;;29.53;24.27;100698.05;129787;1272;119322;-60
2023/07/08 12:02:13;;;;;;;4.10;2.30;;;;;;;29.45;24.14;100693.35;130045;1254;115067;-64
2023/07/08 12:05:15;;;;;;;3.60;2.20;;;;;;;29.39;24.51;100690.66;129759;1262;114867;-65
2023/07/08 12:08:18;;;;;;;3.50;2.70;;;;;;;29.36;24.58;100691.63;130071;1270;114762;-65
2023/07/08 12:11:31;;;;;;;4.70;2.50;;;;;;;29.31;24.67;100685.41;130031;1256;114734;-63
2023/07/08 12:14:33;;;;;;;5.30;2.60;;;;;;;29.31;24.87;100685.73;129612;1260;119857;-64
2023/07/08 12:17:37;;;;;;;4.40;2.60;;;;;;;29.30;25.17;100684.25;129922;1256;115397;-63
2023/07/08 12:20:40;;;;;;;4.50;3.00;;;;;;;29.28;25.46;100680.98;129907;1259;115118;-64
2023/07/08 12:23:47;;;;;;;3.40;2.80;;;;;;;29.28;25.85;100677.48;130021;1257;114724;-64
2023/07/08 12:26:49;;;;;;;3.70;2.60;;;;;;;29.27;25.72;100677.25;129936;1276;114729;-62
2023/07/08 12:29:51;;;;;;;5.30;2.40;;;;;;;29.26;25.88;100674.01;129949;1269;115509;-64
2023/07/08 12:32:55;;;;;;;3.70;2.40;;;;;;;29.22;25.32;100672.98;129908;1276;114750;-67
2023/07/08 12:35:59;;;;;;;2.60;2.40;;;;;;;29.16;25.21;100671.45;129948;1274;115170;-65
2023/07/08 12:39:01;;;;;;;2.70;2.50;;;;;;;29.11;25.23;100669.21;129639;1273;115394;-65
2023/07/08 12:42:09;;;;;;;2.90;2.60;;;;;;;29.10;25.21;100670.81;129920;1273;114789;-66
2023/07/08 12:45:20;;;;;;;3.60;2.90;;;;;;;29.09;25.48;100667.13;129692;1256;114891;-66
2023/07/08 12:48:22;;;;;;;2.50;2.30;;;;;;;29.07;25.21;100662.27;129566;1263;119365;-65
2023/07/08 12:51:26;;;;;;;3.90;2.80;;;;;;;29.04;24.96;100659.42;129894;1272;115339;-66
2023/07/08 12:54:28;;;;;;;3.00;2.40;;;;;;;29.04;25.18;100657.94;130035;1256;114842;-65
2023/07/08 12:57:31;;;;;;;5.30;2.70;;;;;;;29.02;24.80;100658.55;129960;1276;114708;-64
2023/07/08 13:00:38;;;;;;;3.40;2.90;;;;;;;29.00;24.94;100656.40;129972;1273;114769;-65
2023/07/08 13:03:43;;;;;;;4.10;2.60;;;;;;;28.99;25.69;100652.90;129693;1262;119421;-65
2023/07/08 13:06:46;;;;;;;3.50;3.10;;;;;;;28.99;26.06;100648.35;129852;1254;115416;-65
2023/07/08 13:09:48;;;;;;;2.90;2.30;;;;;;;29.00;26.39;100646.75;130024;1257;115297;-67
2023/07/08 13:12:54;;;;;;;4.80;2.90;;;;;;;29.01;26.42;100644.70;130257;1273;114748;-66
2023/07/08 13:15:57;;;;;;;3.90;2.50;;;;;;;28.98;27.10;100641.05;129643;1272;114849;-62
2023/07/08 13:19:00;;;;;;;3.90;3.00;;;;;;;28.91;27.61;100635.61;129896;1256;114788;-65
2023/07/08 13:22:03;;;;;;;3.40;2.80;;;;;;;28.86;27.15;100630.98;130008;1276;115259;-63
2023/07/08 13:25:13;;;;;;;4.00;3.60;;;;;;;28.83;27.46;100632.24;130153;1253;115256;-67
2023/07/08 13:28:28;;;;;;;5.60;2.90;;;;;;;28.82;27.34;100629.61;130110;1260;114874;-67
2023/07/08 13:31:34;;;;;;;4.90;2.90;;;;;;;28.80;27.27;100627.55;130362;1257;115509;-68
2023/07/08 13:34:37;;;;;;;3.20;2.60;;;;;;;28.79;26.44;100622.73;130111;1272;120314;-65
2023/07/08 13:37:39;;;;;;;4.20;2.70;;;;;;;28.78;26.44;100615.67;130004;1276;114708;-66
2023/07/08 13:40:44;;;;;;;4.10;2.80;;;;;;;28.79;26.61;100616.89;130047;1256;115112;-67
2023/07/08 13:43:48;;;;;;;4.60;3.20;;;;;;;28.82;26.69;100610.72;129832;1262;114804;-66
2023/07/08 13:46:50;;;;;;;3.50;3.20;;;;;;;28.84;26.60;100611.87;129976;1257;114776;-66
2023/07/08 13:49:57;;;;;;;3.10;2.80;;;;;;;28.85;26.44;100609.95;129929;1257;115301;-66
2023/07/08 13:52:59;;;;;;;4.80;2.50;;;;;;;28.86;26.22;100605.43;129932;1275;120205;-66
2023/07/08 13:56:04;;;;;;;3.10;2.70;;;;;;;28.90;26.51;100604.02;130124;1275;114716;-67